Time;durP1;ratioP1;P1;durP2;ratioP2;P2;SDS_P1;SDS_P2;PMS_P1;PMS_P2;Temp;Humidity;BMP_temperature;BMP_pressure;BME280_temperature;BME280_humidity;BME280_pressure;Samples;Min_cycle;Max_cycle;Signal;HPM_P1;HPM_P2
2022/12/15 00:40:32;;;;;;;15.68;6.65;;;;;;;;;;5103922;28;20531;-78
2022/12/15 00:43:00;;;;;;;11.70;5.38;;;;;;;;;;5102285;28;20205;-78
2022/12/15 00:46:53;;;;;;;11.82;8.35;;;;;;;;;;5104370;28;20216;-77
2022/12/15 00:48:15;;;;;;;9.82;7.90;;;;;;;;;;5100658;28;20654;-77
2022/12/15 00:50:53;;;;;;;22.60;10.48;;;;;;;;;;5099753;28;20216;-78
2022/12/15 01:21:02;;;;;;;10.30;6.13;;;;;;;;;;5101483;28;20267;-78
2022/12/15 01:23:31;;;;;;;15.88;8.40;;;;;;;;;;5103356;28;20205;-79
2022/12/15 01:25:58;;;;;;;13.35;8.50;;;;;;;;;;5102558;28;20221;-78
2022/12/15 01:28:28;;;;;;;10.45;7.47;;;;;;;;;;5102668;28;20217;-78
2022/12/15 01:30:55;;;;;;;21.67;9.10;;;;;;;;;;5104469;28;20205;-79
2022/12/15 01:33:24;;;;;;;14.57;7.70;;;;;;;;;;5105348;28;20406;-78
2022/12/15 01:35:58;;;;;;;8.80;4.95;;;;;;;;;;5101149;28;20221;-79
2022/12/15 01:38:29;;;;;;;9.95;6.03;;;;;;;;;;5101479;28;20589;-78
2022/12/15 01:40:57;;;;;;;7.72;5.18;;;;;;;;;;5100620;28;20609;-77
2022/12/15 01:43:31;;;;;;;9.90;5.18;;;;;;;;;;5100077;28;20209;-79
2022/12/15 01:46:01;;;;;;;10.05;5.97;;;;;;;;;;5099797;28;20236;-79
2022/12/15 01:48:33;;;;;;;12.95;6.97;;;;;;;;;;5100074;28;20494;-77
2022/12/15 01:51:04;;;;;;;8.73;5.30;;;;;;;;;;5100058;28;20239;-78
2022/12/15 01:53:34;;;;;;;11.77;6.38;;;;;;;;;;5101235;28;20250;-78
2022/12/15 01:56:01;;;;;;;12.32;7.47;;;;;;;;;;5099894;28;20243;-78
2022/12/15 01:58:29;;;;;;;7.00;4.20;;;;;;;;;;5101498;28;20232;-79
2022/12/15 02:00:57;;;;;;;15.80;8.13;;;;;;;;;;5101756;28;20205;-80
2022/12/15 02:03:26;;;;;;;5.25;3.78;;;;;;;;;;5102549;28;20485;-79
2022/12/15 02:05:54;;;;;;;4.15;3.15;;;;;;;;;;5101260;28;20228;-79
2022/12/15 02:08:21;;;;;;;7.35;4.05;;;;;;;;;;5102419;28;20294;-77
2022/12/15 02:10:58;;;;;;;7.80;3.83;;;;;;;;;;5097102;28;20216;-77
2022/12/15 02:13:29;;;;;;;7.65;5.70;;;;;;;;;;5102239;28;20209;-79
2022/12/15 02:16:00;;;;;;;20.83;8.35;;;;;;;;;;5101795;28;20205;-79
2022/12/15 02:18:34;;;;;;;16.17;5.97;;;;;;;;;;5103390;28;20206;-79
2022/12/15 02:21:06;;;;;;;6.25;5.65;;;;;;;;;;5103416;28;20212;-79
2022/12/15 02:23:48;;;;;;;12.77;6.88;;;;;;;;;;5103417;28;20553;-79
2022/12/15 02:26:31;;;;;;;10.00;7.20;;;;;;;;;;5100018;28;20495;-79
2022/12/15 02:29:09;;;;;;;10.70;6.38;;;;;;;;;;5098870;28;20225;-78
2022/12/15 02:31:49;;;;;;;9.68;6.07;;;;;;;;;;5102451;28;20213;-80
2022/12/15 02:34:20;;;;;;;10.20;5.78;;;;;;;;;;5100315;28;20221;-78
2022/12/15 02:36:49;;;;;;;13.60;7.95;;;;;;;;;;5103366;28;20218;-79
2022/12/15 02:39:18;;;;;;;10.13;6.15;;;;;;;;;;5100209;28;20206;-79
2022/12/15 02:41:47;;;;;;;6.13;4.20;;;;;;;;;;5101529;28;20209;-79
2022/12/15 02:44:17;;;;;;;15.57;6.88;;;;;;;;;;5104149;28;20666;-78
2022/12/15 02:47:05;;;;;;;13.73;9.68;;;;;;;;;;5104251;28;20225;-78
2022/12/15 02:49:42;;;;;;;13.27;10.57;;;;;;;;;;5096700;28;20217;-78
2022/12/15 02:52:17;;;;;;;13.52;9.07;;;;;;;;;;5103044;28;20570;-76
2022/12/15 02:54:53;;;;;;;16.30;7.07;;;;;;;;;;5103935;28;20213;-78
2022/12/15 02:57:24;;;;;;;12.85;8.60;;;;;;;;;;5103377;28;20208;-79
2022/12/15 02:59:55;;;;;;;6.85;4.97;;;;;;;;;;5104413;28;20209;-79
2022/12/15 03:02:24;;;;;;;16.75;8.10;;;;;;;;;;5104971;28;20304;-78
2022/12/15 03:04:53;;;;;;;13.23;6.82;;;;;;;;;;5104768;28;20529;-77
2022/12/15 03:07:23;;;;;;;12.77;5.20;;;;;;;;;;5105621;28;20229;-79
2022/12/15 03:09:51;;;;;;;16.55;9.75;;;;;;;;;;5100906;28;20249;-78
2022/12/15 03:12:18;;;;;;;8.27;6.47;;;;;;;;;;5104761;28;20213;-79
2022/12/15 03:14:46;;;;;;;10.40;7.50;;;;;;;;;;5102505;28;20220;-78
2022/12/15 03:17:14;;;;;;;11.43;7.55;;;;;;;;;;5102529;28;20566;-78
2022/12/15 03:19:41;;;;;;;14.25;9.00;;;;;;;;;;5104047;28;20205;-78
2022/12/15 03:22:11;;;;;;;9.00;5.07;;;;;;;;;;5105249;28;20485;-79
2022/12/15 03:24:39;;;;;;;13.05;7.68;;;;;;;;;;5103638;28;20194;-77
2022/12/15 03:27:07;;;;;;;14.32;7.05;;;;;;;;;;5100657;28;20225;-78
2022/12/15 03:29:34;;;;;;;7.55;5.25;;;;;;;;;;5102845;28;20484;-79
2022/12/15 03:32:02;;;;;;;10.60;8.80;;;;;;;;;;5103458;28;20220;-79
2022/12/15 03:34:30;;;;;;;7.93;5.55;;;;;;;;;;5102043;28;20213;-78
2022/12/15 03:36:58;;;;;;;13.63;8.00;;;;;;;;;;5102124;28;20578;-78
2022/12/15 03:39:27;;;;;;;15.18;8.13;;;;;;;;;;5103572;28;20201;-78
2022/12/15 03:41:54;;;;;;;8.00;5.10;;;;;;;;;;5105926;28;20206;-78
2022/12/15 03:44:22;;;;;;;7.80;4.75;;;;;;;;;;5103165;28;20216;-79
2022/12/15 03:46:49;;;;;;;13.55;6.20;;;;;;;;;;5103119;28;20225;-78
2022/12/15 03:49:17;;;;;;;13.50;7.43;;;;;;;;;;5102145;28;20209;-78
2022/12/15 03:51:45;;;;;;;9.75;6.32;;;;;;;;;;5103495;28;20209;-78
2022/12/15 03:54:12;;;;;;;12.45;7.90;;;;;;;;;;5101854;28;20210;-79
2022/12/15 03:56:42;;;;;;;4.97;4.35;;;;;;;;;;5101997;28;20247;-79
2022/12/15 03:59:09;;;;;;;9.65;7.25;;;;;;;;;;5102108;28;20227;-79
2022/12/15 04:01:37;;;;;;;10.55;6.68;;;;;;;;;;5104745;28;20209;-78
2022/12/15 04:04:09;;;;;;;7.80;4.95;;;;;;;;;;5105746;28;20205;-78
2022/12/15 04:06:36;;;;;;;12.23;5.60;;;;;;;;;;5103910;28;20197;-77
2022/12/15 04:09:04;;;;;;;7.25;5.78;;;;;;;;;;5100491;28;20205;-78
2022/12/15 04:11:32;;;;;;;9.55;6.70;;;;;;;;;;5101571;28;20266;-78
2022/12/15 04:14:01;;;;;;;7.50;4.45;;;;;;;;;;5101757;28;20206;-80
2022/12/15 04:16:29;;;;;;;6.03;5.15;;;;;;;;;;5100526;28;20204;-78
2022/12/15 04:21:38;;;;;;;10.57;7.68;;;;;;;;;;5101277;28;20198;-79
2022/12/15 05:33:04;;;;;;;16.35;8.77;;;;;;;;;;5101280;28;20340;-78
2022/12/15 05:35:33;;;;;;;8.45;6.30;;;;;;;;;;5103249;28;20217;-79
2022/12/15 05:38:01;;;;;;;10.07;6.10;;;;;;;;;;5101675;28;20217;-78
2022/12/15 05:40:28;;;;;;;11.90;6.63;;;;;;;;;;5099331;28;20213;-78
2022/12/15 05:42:58;;;;;;;12.10;6.72;;;;;;;;;;5102037;28;20284;-79
2022/12/15 05:45:26;;;;;;;14.15;6.28;;;;;;;;;;5100704;28;20205;-78
2022/12/15 05:47:54;;;;;;;11.50;7.85;;;;;;;;;;5100029;28;20244;-79
2022/12/15 05:50:22;;;;;;;7.22;4.07;;;;;;;;;;5100721;28;20206;-78
2022/12/15 05:52:51;;;;;;;21.80;9.02;;;;;;;;;;5099652;28;20581;-78
2022/12/15 05:55:19;;;;;;;26.95;7.07;;;;;;;;;;5097597;28;20212;-78
2022/12/15 05:57:51;;;;;;;10.02;5.72;;;;;;;;;;5097855;28;20209;-78
2022/12/15 06:00:19;;;;;;;15.63;8.75;;;;;;;;;;5099137;28;20234;-78
2022/12/15 06:02:47;;;;;;;7.90;6.07;;;;;;;;;;5098578;28;20216;-78
2022/12/15 06:05:14;;;;;;;10.30;7.03;;;;;;;;;;5098839;28;20208;-77
2022/12/15 06:07:42;;;;;;;10.85;6.03;;;;;;;;;;5100775;28;20237;-78
2022/12/15 06:10:11;;;;;;;10.57;7.57;;;;;;;;;;5102583;28;20562;-79
2022/12/15 06:12:39;;;;;;;12.30;9.63;;;;;;;;;;5102468;28;20213;-79
2022/12/15 06:15:07;;;;;;;13.25;7.50;;;;;;;;;;5101226;28;20210;-77
2022/12/15 06:17:34;;;;;;;8.98;7.00;;;;;;;;;;5101692;28;20213;-77
2022/12/15 06:20:02;;;;;;;11.05;6.78;;;;;;;;;;5102044;28;20197;-77
2022/12/15 06:22:30;;;;;;;14.40;8.23;;;;;;;;;;5101610;28;20204;-78
2022/12/15 06:24:58;;;;;;;13.48;7.38;;;;;;;;;;5104778;28;20558;-79
2022/12/15 06:27:27;;;;;;;13.15;9.60;;;;;;;;;;5103167;28;20232;-78
2022/12/15 06:29:54;;;;;;;13.85;7.85;;;;;;;;;;5104261;28;20213;-78
2022/12/15 06:32:22;;;;;;;13.60;7.40;;;;;;;;;;5102128;28;20405;-78
2022/12/15 06:34:49;;;;;;;10.05;7.00;;;;;;;;;;5099125;28;20562;-77
2022/12/15 06:37:17;;;;;;;6.70;6.00;;;;;;;;;;5099080;28;20212;-78
2022/12/15 06:39:45;;;;;;;12.07;7.82;;;;;;;;;;5097736;28;20216;-77
2022/12/15 06:42:13;;;;;;;9.88;7.20;;;;;;;;;;5097975;28;20214;-77
2022/12/15 06:44:42;;;;;;;11.80;8.23;;;;;;;;;;5097778;28;20480;-76
2022/12/15 06:47:10;;;;;;;10.57;6.32;;;;;;;;;;5097142;28;20197;-77
2022/12/15 06:49:37;;;;;;;13.23;7.65;;;;;;;;;;5098128;28;20281;-77
2022/12/15 06:52:05;;;;;;;8.45;6.28;;;;;;;;;;5098856;28;20214;-76
2022/12/15 06:54:32;;;;;;;10.80;6.43;;;;;;;;;;5098342;28;20210;-76
2022/12/15 06:57:00;;;;;;;13.32;8.93;;;;;;;;;;5097413;28;20205;-77
2022/12/15 06:59:28;;;;;;;9.95;8.40;;;;;;;;;;5100858;28;20202;-77
2022/12/15 07:01:57;;;;;;;19.13;9.88;;;;;;;;;;5100351;28;20203;-77
2022/12/15 07:04:24;;;;;;;14.13;8.45;;;;;;;;;;5100196;28;20212;-77
2022/12/15 07:06:52;;;;;;;15.65;9.55;;;;;;;;;;5091333;28;20209;-78
2022/12/15 07:09:19;;;;;;;18.33;8.27;;;;;;;;;;5095317;28;20296;-76
2022/12/15 07:11:49;;;;;;;14.25;6.43;;;;;;;;;;5087906;28;20209;-77
2022/12/15 07:14:18;;;;;;;9.23;6.50;;;;;;;;;;5079564;28;20202;-77
2022/12/15 07:16:46;;;;;;;11.75;7.95;;;;;;;;;;5087505;28;20202;-77
2022/12/15 07:19:15;;;;;;;14.13;6.78;;;;;;;;;;5086914;28;20201;-76
2022/12/15 07:21:42;;;;;;;10.40;8.05;;;;;;;;;;5100815;28;20212;-77
2022/12/15 07:24:19;;;;;;;11.65;8.25;;;;;;;;;;5084404;28;20214;-75
2022/12/15 07:26:47;;;;;;;15.52;8.93;;;;;;;;;;5086234;28;20286;-77
2022/12/15 07:29:15;;;;;;;19.75;9.18;;;;;;;;;;5090940;28;20232;-78
2022/12/15 07:31:43;;;;;;;15.40;8.52;;;;;;;;;;5085611;28;20669;-77
2022/12/15 07:34:10;;;;;;;10.73;7.05;;;;;;;;;;5081196;28;20552;-78
2022/12/15 07:36:45;;;;;;;10.45;7.38;;;;;;;;;;5077754;28;20264;-77
2022/12/15 07:39:13;;;;;;;10.48;6.80;;;;;;;;;;5080021;28;20213;-77
2022/12/15 07:41:40;;;;;;;11.70;7.70;;;;;;;;;;5087570;28;20202;-78
2022/12/15 07:44:09;;;;;;;20.60;11.23;;;;;;;;;;5098425;28;20448;-77
2022/12/15 07:46:37;;;;;;;12.75;9.65;;;;;;;;;;5099214;28;20254;-77
2022/12/15 07:49:04;;;;;;;16.00;10.63;;;;;;;;;;5101544;28;20222;-78
2022/12/15 07:51:32;;;;;;;15.75;10.25;;;;;;;;;;5086066;28;20495;-76
2022/12/15 07:54:01;;;;;;;14.32;9.63;;;;;;;;;;5095076;28;20209;-76
2022/12/15 07:56:29;;;;;;;9.57;6.78;;;;;;;;;;5087923;28;20209;-78
2022/12/15 07:58:56;;;;;;;13.35;8.30;;;;;;;;;;5088313;28;20210;-77
2022/12/15 08:01:24;;;;;;;12.93;8.23;;;;;;;;;;5082896;28;20198;-76
2022/12/15 08:03:52;;;;;;;10.50;8.15;;;;;;;;;;5093748;28;20225;-78
2022/12/15 08:06:19;;;;;;;16.13;10.95;;;;;;;;;;5085186;28;20213;-78
2022/12/15 08:08:47;;;;;;;21.45;10.80;;;;;;;;;;5097365;28;20229;-77
2022/12/15 08:11:16;;;;;;;15.90;9.05;;;;;;;;;;5100525;28;20205;-76
2022/12/15 08:13:45;;;;;;;13.18;9.32;;;;;;;;;;5101539;28;20494;-78
2022/12/15 08:16:12;;;;;;;12.07;9.63;;;;;;;;;;5098104;28;20818;-77
2022/12/15 08:18:40;;;;;;;8.65;6.60;;;;;;;;;;5100014;28;20218;-76
2022/12/15 08:21:09;;;;;;;12.18;9.60;;;;;;;;;;5096821;28;20281;-76
2022/12/15 08:23:36;;;;;;;13.55;10.10;;;;;;;;;;5092769;28;20198;-77
2022/12/15 08:26:04;;;;;;;13.93;8.93;;;;;;;;;;5087582;28;20202;-78
2022/12/15 08:28:34;;;;;;;13.07;8.73;;;;;;;;;;5090314;28;20620;-77
2022/12/15 08:31:03;;;;;;;14.15;8.40;;;;;;;;;;5102591;28;20198;-77
2022/12/15 08:33:31;;;;;;;17.00;12.95;;;;;;;;;;5100204;28;20213;-78
2022/12/15 08:36:00;;;;;;;15.02;8.73;;;;;;;;;;5100117;28;20205;-77
2022/12/15 08:38:27;;;;;;;16.95;11.93;;;;;;;;;;5087084;28;20265;-77
2022/12/15 08:40:55;;;;;;;17.73;10.45;;;;;;;;;;5092599;28;20228;-78
2022/12/15 08:43:23;;;;;;;12.45;8.18;;;;;;;;;;5099004;28;20530;-77
2022/12/15 08:45:52;;;;;;;11.75;9.82;;;;;;;;;;5089580;28;20217;-77
2022/12/15 08:48:20;;;;;;;18.48;10.43;;;;;;;;;;5095771;28;20647;-77
2022/12/15 08:50:47;;;;;;;18.05;9.68;;;;;;;;;;5082801;28;20206;-76
2022/12/15 08:53:15;;;;;;;14.60;9.38;;;;;;;;;;5098251;28;20305;-77
2022/12/15 08:55:42;;;;;;;13.27;10.07;;;;;;;;;;5096019;28;20631;-77
2022/12/15 08:58:25;;;;;;;16.70;10.35;;;;;;;;;;5086884;28;20214;-75
2022/12/15 09:01:07;;;;;;;14.80;9.20;;;;;;;;;;5096922;28;20602;-75
2022/12/15 09:04:11;;;;;;;25.50;12.05;;;;;;;;;;5091267;28;20452;-77
2022/12/15 09:06:40;;;;;;;11.02;8.15;;;;;;;;;;5097942;28;20227;-78
2022/12/15 09:09:09;;;;;;;10.65;6.93;;;;;;;;;;5088264;28;20597;-73
2022/12/15 09:11:37;;;;;;;12.73;7.00;;;;;;;;;;5084700;28;20227;-77
2022/12/15 09:14:07;;;;;;;13.77;10.45;;;;;;;;;;5083797;28;20624;-76
2022/12/15 09:16:40;;;;;;;18.48;12.30;;;;;;;;;;5091528;28;20212;-75
2022/12/15 09:19:08;;;;;;;16.60;7.80;;;;;;;;;;5090159;28;20209;-77
2022/12/15 09:21:38;;;;;;;16.50;8.40;;;;;;;;;;5078976;28;20456;-75
2022/12/15 09:24:10;;;;;;;16.70;10.35;;;;;;;;;;5088205;28;20589;-74
2022/12/15 09:27:11;;;;;;;9.45;7.88;;;;;;;;;;5086660;28;20286;-77
2022/12/15 09:29:41;;;;;;;15.27;8.23;;;;;;;;;;5086953;28;20230;-75
2022/12/15 09:32:13;;;;;;;11.52;10.13;;;;;;;;;;5093689;28;20765;-75
2022/12/15 09:34:41;;;;;;;11.25;7.03;;;;;;;;;;5085740;28;20266;-75
2022/12/15 09:37:08;;;;;;;13.73;9.07;;;;;;;;;;5090314;28;20202;-76
2022/12/15 09:39:37;;;;;;;15.90;10.63;;;;;;;;;;5083319;28;20210;-74
2022/12/15 09:42:07;;;;;;;10.97;7.90;;;;;;;;;;5089532;28;20222;-77
2022/12/15 09:44:37;;;;;;;8.63;7.65;;;;;;;;;;5103271;28;20547;-76
2022/12/15 09:47:10;;;;;;;21.15;13.10;;;;;;;;;;5090645;28;20205;-76
2022/12/15 09:49:52;;;;;;;12.38;9.65;;;;;;;;;;5100229;28;20229;-77
2022/12/15 09:52:29;;;;;;;17.67;11.55;;;;;;;;;;5100891;28;20204;-76
2022/12/15 09:58:06;;;;;;;12.80;8.82;;;;;;;;;;5096527;28;20205;-78
2022/12/15 10:00:38;;;;;;;11.85;9.23;;;;;;;;;;5097567;28;20244;-75
2022/12/15 10:03:32;;;;;;;17.07;8.83;;;;;;;;;;5101505;28;20359;-76
2022/12/15 10:06:17;;;;;;;22.50;10.50;;;;;;;;;;5102730;28;20471;-77
2022/12/15 10:08:47;;;;;;;41.75;25.30;;;;;;;;;;5105582;28;20483;-76
2022/12/15 10:11:28;;;;;;;14.70;7.50;;;;;;;;;;5101596;28;20215;-76
2022/12/15 10:13:58;;;;;;;9.13;7.10;;;;;;;;;;5103893;28;20468;-77
2022/12/15 10:16:32;;;;;;;15.30;9.23;;;;;;;;;;5108547;28;20447;-78
2022/12/15 10:19:09;;;;;;;10.88;7.50;;;;;;;;;;5100919;28;20468;-79
2022/12/15 10:21:52;;;;;;;16.20;9.63;;;;;;;;;;5107882;28;20210;-78
2022/12/15 10:24:21;;;;;;;17.27;10.23;;;;;;;;;;5105208;28;20491;-77
2022/12/15 10:26:55;;;;;;;13.00;10.20;;;;;;;;;;5100130;28;20477;-79
2022/12/15 10:29:35;;;;;;;16.48;8.52;;;;;;;;;;5106513;28;20486;-77
2022/12/15 10:32:06;;;;;;;16.53;12.30;;;;;;;;;;5092363;28;20225;-79
2022/12/15 10:34:36;;;;;;;15.80;12.55;;;;;;;;;;5090517;28;20486;-75
2022/12/15 10:37:14;;;;;;;13.93;10.63;;;;;;;;;;5096524;28;20213;-79
2022/12/15 10:39:44;;;;;;;14.60;8.73;;;;;;;;;;5098246;28;20472;-76
2022/12/15 10:42:14;;;;;;;11.90;9.57;;;;;;;;;;5094740;28;20482;-77
2022/12/15 10:44:43;;;;;;;18.97;8.90;;;;;;;;;;5094582;28;20455;-76
2022/12/15 10:47:11;;;;;;;12.20;9.07;;;;;;;;;;5101570;28;20558;-78
2022/12/15 10:49:39;;;;;;;16.03;13.73;;;;;;;;;;5100118;28;20499;-77
2022/12/15 10:52:17;;;;;;;12.70;9.20;;;;;;;;;;5096363;28;20464;-77
2022/12/15 10:54:51;;;;;;;7.57;6.57;;;;;;;;;;5099533;28;20451;-77
2022/12/15 10:57:22;;;;;;;11.33;9.43;;;;;;;;;;5105608;28;20477;-77
2022/12/15 11:00:13;;;;;;;14.80;8.57;;;;;;;;;;5084554;28;20497;-79
2022/12/15 11:02:46;;;;;;;7.70;5.60;;;;;;;;;;5083317;28;20904;-76
2022/12/15 11:05:17;;;;;;;12.93;8.30;;;;;;;;;;5090543;28;20521;-78
2022/12/15 11:07:48;;;;;;;13.23;7.87;;;;;;;;;;5097203;28;20454;-76
2022/12/15 11:10:20;;;;;;;9.07;7.17;;;;;;;;;;5089767;28;20498;-75
2022/12/15 11:13:03;;;;;;;12.23;6.40;;;;;;;;;;5107015;28;20523;-77
2022/12/15 11:18:37;;;;;;;12.10;7.53;;;;;;;;;;5085579;28;20536;-76
2022/12/15 11:21:06;;;;;;;10.50;7.90;;;;;;;;;;5093244;28;20547;-76
2022/12/15 11:23:44;;;;;;;14.07;8.27;;;;;;;;;;5081766;28;20487;-77
2022/12/15 11:26:20;;;;;;;17.30;10.23;;;;;;;;;;5093010;28;20484;-74
2022/12/15 11:28:58;;;;;;;17.23;10.80;;;;;;;;;;5088784;28;20491;-75
2022/12/15 11:31:28;;;;;;;13.67;8.40;;;;;;;;;;5084880;28;20559;-76
2022/12/15 11:33:57;;;;;;;17.30;8.80;;;;;;;;;;5082374;28;20476;-75
2022/12/15 11:36:31;;;;;;;16.30;10.37;;;;;;;;;;5091633;28;21121;-76
2022/12/15 11:39:02;;;;;;;17.77;12.80;;;;;;;;;;5097751;28;20459;-76
2022/12/15 11:41:36;;;;;;;14.73;10.80;;;;;;;;;;5089338;28;20466;-75
2022/12/15 11:44:22;;;;;;;16.73;11.43;;;;;;;;;;5086078;28;20487;-76
2022/12/15 11:46:53;;;;;;;20.50;11.50;;;;;;;;;;5081027;28;20484;-76
2022/12/15 11:49:32;;;;;;;15.87;8.97;;;;;;;;;;5087401;28;20491;-76
2022/12/15 11:52:12;;;;;;;17.40;9.70;;;;;;;;;;5096090;28;21159;-76
2022/12/15 11:54:46;;;;;;;11.87;10.30;;;;;;;;;;5085951;28;20448;-77
2022/12/15 11:57:24;;;;;;;21.30;10.30;;;;;;;;;;5085284;28;20460;-77
2022/12/15 12:00:03;;;;;;;20.47;11.53;;;;;;;;;;5086973;28;20544;-75
2022/12/15 12:02:44;;;;;;;23.43;12.10;;;;;;;;;;5090400;28;20466;-76
2022/12/15 12:05:24;;;;;;;14.50;8.03;;;;;;;;;;5089347;28;20487;-75
2022/12/15 12:07:54;;;;;;;9.13;6.50;;;;;;;;;;5096723;28;20518;-77
2022/12/15 12:10:31;;;;;;;18.80;11.63;;;;;;;;;;5098400;28;21096;-78
2022/12/15 12:13:05;;;;;;;20.70;12.43;;;;;;;;;;5094304;28;20479;-78
2022/12/15 12:15:36;;;;;;;16.67;8.40;;;;;;;;;;5090440;28;20451;-78
2022/12/15 12:18:11;;;;;;;17.87;10.43;;;;;;;;;;5094913;28;20456;-78
2022/12/15 12:20:43;;;;;;;12.80;8.90;;;;;;;;;;5099445;28;21163;-75
2022/12/15 12:23:16;;;;;;;17.47;10.37;;;;;;;;;;5098959;28;20447;-77
2022/12/15 12:25:49;;;;;;;21.37;11.13;;;;;;;;;;5089593;28;20464;-76
2022/12/15 12:28:21;;;;;;;33.87;16.00;;;;;;;;;;5087100;28;20460;-77
2022/12/15 12:30:51;;;;;;;28.90;14.53;;;;;;;;;;5091018;28;20906;-76
2022/12/15 12:33:26;;;;;;;23.60;14.87;;;;;;;;;;5089108;28;20471;-77
2022/12/15 12:35:55;;;;;;;28.50;14.60;;;;;;;;;;5097766;28;20447;-77
2022/12/15 12:38:25;;;;;;;11.37;7.90;;;;;;;;;;5089477;28;20470;-77
2022/12/15 12:40:58;;;;;;;14.33;9.50;;;;;;;;;;5095666;28;20509;-77
2022/12/15 12:43:32;;;;;;;14.27;8.30;;;;;;;;;;5083746;28;20475;-77
2022/12/15 12:46:02;;;;;;;12.30;8.93;;;;;;;;;;5090714;28;20480;-76
2022/12/15 12:48:32;;;;;;;15.77;9.73;;;;;;;;;;5083602;28;20468;-76
2022/12/15 12:51:12;;;;;;;20.77;12.13;;;;;;;;;;5084349;28;20967;-77
2022/12/15 12:53:40;;;;;;;18.67;10.30;;;;;;;;;;5088082;28;20463;-78
2022/12/15 12:56:29;;;;;;;16.07;9.87;;;;;;;;;;5089618;28;20894;-77
2022/12/15 12:59:06;;;;;;;11.17;7.60;;;;;;;;;;5086258;28;20915;-77
2022/12/15 13:01:37;;;;;;;19.97;9.20;;;;;;;;;;5086543;28;20883;-76
2022/12/15 13:04:11;;;;;;;14.03;7.97;;;;;;;;;;5088307;28;20479;-76
2022/12/15 13:06:57;;;;;;;10.27;6.90;;;;;;;;;;5091429;28;20578;-77
2022/12/15 13:09:25;;;;;;;9.20;7.60;;;;;;;;;;5089436;28;20487;-77
2022/12/15 13:12:00;;;;;;;12.60;6.30;;;;;;;;;;5093244;28;20463;-76
2022/12/15 13:14:47;;;;;;;11.03;7.20;;;;;;;;;;5089563;28;20487;-77
2022/12/15 13:17:17;;;;;;;9.67;7.80;;;;;;;;;;5088784;28;20474;-77
2022/12/15 13:20:02;;;;;;;13.57;6.80;;;;;;;;;;5088913;28;20463;-77
2022/12/15 13:22:32;;;;;;;10.70;9.00;;;;;;;;;;5071950;28;20456;-76
2022/12/15 13:25:00;;;;;;;17.70;8.10;;;;;;;;;;5084720;28;20867;-77
2022/12/15 13:27:37;;;;;;;17.87;11.30;;;;;;;;;;5097561;28;20858;-78
2022/12/15 13:30:15;;;;;;;11.40;8.27;;;;;;;;;;5094725;28;20486;-77
2022/12/15 13:32:44;;;;;;;14.53;6.60;;;;;;;;;;5078527;28;20463;-77
2022/12/15 13:35:22;;;;;;;10.07;6.27;;;;;;;;;;5085302;28;20471;-76
2022/12/15 13:37:50;;;;;;;14.43;8.00;;;;;;;;;;5091680;28;20455;-76
2022/12/15 13:40:33;;;;;;;12.30;8.80;;;;;;;;;;5079982;28;20752;-77
2022/12/15 13:43:09;;;;;;;11.93;8.30;;;;;;;;;;5076469;28;20464;-78
2022/12/15 13:45:50;;;;;;;14.93;6.90;;;;;;;;;;5075004;28;20452;-76
2022/12/15 13:48:47;;;;;;;13.00;7.23;;;;;;;;;;5086997;28;20829;-76
2022/12/15 13:51:24;;;;;;;10.43;7.40;;;;;;;;;;5035799;28;20756;-76
2022/12/15 13:53:56;;;;;;;11.73;8.57;;;;;;;;;;5084293;28;20456;-76
2022/12/15 13:56:35;;;;;;;10.13;6.90;;;;;;;;;;5074891;28;20872;-76
2022/12/15 13:59:07;;;;;;;12.77;8.70;;;;;;;;;;5077056;28;20460;-76
2022/12/15 14:01:35;;;;;;;6.63;4.27;;;;;;;;;;5085064;28;20478;-76
2022/12/15 14:04:14;;;;;;;17.47;9.50;;;;;;;;;;5089230;28;20476;-77
2022/12/15 14:06:49;;;;;;;8.10;5.97;;;;;;;;;;5085130;28;20567;-77
2022/12/15 14:09:20;;;;;;;11.00;7.37;;;;;;;;;;5088617;28;20875;-76
2022/12/15 14:11:48;;;;;;;9.57;7.03;;;;;;;;;;5086721;28;21040;-77
2022/12/15 14:14:19;;;;;;;13.57;6.33;;;;;;;;;;5091692;28;20829;-77
2022/12/15 14:16:52;;;;;;;13.13;8.17;;;;;;;;;;5089110;28;20459;-76
2022/12/15 14:19:20;;;;;;;16.20;10.93;;;;;;;;;;5095258;28;20460;-77
2022/12/15 14:21:52;;;;;;;19.13;9.93;;;;;;;;;;5084296;28;20516;-76
2022/12/15 14:24:25;;;;;;;18.00;7.67;;;;;;;;;;5084863;28;20447;-77
2022/12/15 14:26:53;;;;;;;15.70;9.00;;;;;;;;;;5079143;28;20470;-76
2022/12/15 14:29:22;;;;;;;20.33;11.60;;;;;;;;;;5083356;28;20477;-78
2022/12/15 14:31:55;;;;;;;9.90;6.03;;;;;;;;;;5087142;28;20475;-77
2022/12/15 14:34:26;;;;;;;10.83;7.40;;;;;;;;;;5075087;28;20547;-74
2022/12/15 14:36:55;;;;;;;12.70;8.43;;;;;;;;;;5080392;28;20999;-76
2022/12/15 14:39:25;;;;;;;10.23;7.77;;;;;;;;;;5082884;28;20453;-75
2022/12/15 14:41:54;;;;;;;11.93;7.37;;;;;;;;;;5078104;28;20465;-75
2022/12/15 14:44:26;;;;;;;14.53;6.57;;;;;;;;;;5076925;28;20441;-76
2022/12/15 14:46:55;;;;;;;11.30;7.80;;;;;;;;;;5084146;28;20498;-75
2022/12/15 14:49:26;;;;;;;14.77;9.23;;;;;;;;;;5085601;28;20448;-75
2022/12/15 14:51:56;;;;;;;16.23;10.57;;;;;;;;;;5082425;28;20467;-77
2022/12/15 14:54:38;;;;;;;21.03;12.50;;;;;;;;;;5090913;28;20458;-77
2022/12/15 14:57:19;;;;;;;19.30;8.40;;;;;;;;;;5091911;28;20543;-77
2022/12/15 14:59:58;;;;;;;15.00;8.70;;;;;;;;;;5083279;28;20451;-79
2022/12/15 15:02:29;;;;;;;20.90;9.13;;;;;;;;;;5090161;28;20481;-79
2022/12/15 15:04:58;;;;;;;12.40;8.50;;;;;;;;;;5090245;28;20452;-77
2022/12/15 15:07:27;;;;;;;14.93;8.80;;;;;;;;;;5088583;28;20459;-79
2022/12/15 15:09:55;;;;;;;15.53;9.27;;;;;;;;;;5100887;28;20588;-78
2022/12/15 15:12:24;;;;;;;20.90;10.30;;;;;;;;;;5101361;28;20534;-77
2022/12/15 15:14:56;;;;;;;19.87;10.30;;;;;;;;;;5084717;28;20559;-78
2022/12/15 15:17:26;;;;;;;17.83;8.97;;;;;;;;;;5082746;28;20449;-78
2022/12/15 15:19:55;;;;;;;10.80;7.63;;;;;;;;;;5086868;28;20529;-77
2022/12/15 15:22:38;;;;;;;14.80;9.73;;;;;;;;;;5079106;28;20448;-77
2022/12/15 15:25:30;;;;;;;12.73;9.60;;;;;;;;;;5089525;28;20481;-78
2022/12/15 15:28:16;;;;;;;16.77;9.03;;;;;;;;;;5081844;28;20638;-77
2022/12/15 15:30:47;;;;;;;15.40;10.10;;;;;;;;;;5094617;28;20595;-77
2022/12/15 15:33:15;;;;;;;15.90;8.37;;;;;;;;;;5094876;28;20470;-77
2022/12/15 15:35:43;;;;;;;14.63;10.17;;;;;;;;;;5093832;28;20463;-77
2022/12/15 15:38:18;;;;;;;23.93;12.60;;;;;;;;;;5093330;28;20452;-79
2022/12/15 15:40:49;;;;;;;12.57;7.83;;;;;;;;;;5087199;28;20452;-79
2022/12/15 15:43:18;;;;;;;10.33;6.70;;;;;;;;;;5087295;28;21032;-76
2022/12/15 15:45:48;;;;;;;11.80;8.37;;;;;;;;;;5088814;28;20471;-77
2022/12/15 15:48:19;;;;;;;23.53;13.30;;;;;;;;;;5096292;28;20459;-77
2022/12/15 15:50:47;;;;;;;19.10;10.03;;;;;;;;;;5093694;28;20582;-78
2022/12/15 15:53:18;;;;;;;17.67;9.87;;;;;;;;;;5104692;28;20456;-78
2022/12/15 15:55:46;;;;;;;15.83;10.33;;;;;;;;;;5106149;28;20460;-78
2022/12/15 15:58:20;;;;;;;18.83;9.03;;;;;;;;;;5101754;28;20451;-77
2022/12/15 16:00:55;;;;;;;16.53;9.57;;;;;;;;;;5097400;28;20529;-77
2022/12/15 16:03:23;;;;;;;17.10;10.57;;;;;;;;;;5081693;28;20463;-77
2022/12/15 16:05:50;;;;;;;20.20;11.43;;;;;;;;;;5081278;28;20448;-77
2022/12/15 16:08:26;;;;;;;17.10;10.50;;;;;;;;;;5080733;28;20444;-79
2022/12/15 16:10:54;;;;;;;20.93;11.70;;;;;;;;;;5088710;28;20482;-78
2022/12/15 16:13:22;;;;;;;15.60;10.77;;;;;;;;;;5090353;28;20456;-77
2022/12/15 16:15:51;;;;;;;11.80;9.90;;;;;;;;;;5078409;28;20496;-76
2022/12/15 16:18:19;;;;;;;11.40;7.23;;;;;;;;;;5087732;28;20475;-77
2022/12/15 16:20:48;;;;;;;24.33;12.10;;;;;;;;;;5101618;28;20511;-78
2022/12/15 16:23:17;;;;;;;16.07;9.50;;;;;;;;;;5095228;28;20463;-78
2022/12/15 16:25:45;;;;;;;12.47;7.97;;;;;;;;;;5090825;28;20852;-78
2022/12/15 16:28:14;;;;;;;23.33;14.00;;;;;;;;;;5098911;28;20788;-78
2022/12/15 16:30:42;;;;;;;19.43;10.57;;;;;;;;;;5100204;28;20494;-78
2022/12/15 16:33:12;;;;;;;11.17;7.30;;;;;;;;;;5098557;28;20459;-79
2022/12/15 16:35:40;;;;;;;17.10;9.60;;;;;;;;;;5093340;28;20904;-79
2022/12/15 16:38:08;;;;;;;16.53;11.40;;;;;;;;;;5078113;28;20461;-78
2022/12/15 16:40:38;;;;;;;20.10;11.40;;;;;;;;;;5084765;28;20459;-78
2022/12/15 16:43:11;;;;;;;18.80;11.37;;;;;;;;;;5094966;28;20464;-78
2022/12/15 16:45:39;;;;;;;16.03;10.23;;;;;;;;;;5093479;28;20791;-77
2022/12/15 16:48:11;;;;;;;18.03;13.00;;;;;;;;;;5095509;28;20476;-79
2022/12/15 16:50:41;;;;;;;18.93;10.97;;;;;;;;;;5098767;28;20473;-78
2022/12/15 16:53:14;;;;;;;17.55;12.98;;;;;;;;;;5086563;28;20462;-78
2022/12/15 16:55:42;;;;;;;23.20;11.47;;;;;;;;;;5107183;28;20209;-79
2022/12/15 16:58:16;;;;;;;16.10;12.60;;;;;;;;;;5110308;28;20447;-79
2022/12/15 17:00:44;;;;;;;22.33;12.20;;;;;;;;;;5110619;28;20479;-79
2022/12/15 17:03:17;;;;;;;38.47;11.90;;;;;;;;;;5104910;28;20464;-79
2022/12/15 17:05:49;;;;;;;22.13;13.67;;;;;;;;;;5086628;28;20483;-79
2022/12/15 17:08:21;;;;;;;16.93;9.67;;;;;;;;;;5082391;28;20445;-79
2022/12/15 17:10:49;;;;;;;19.23;10.83;;;;;;;;;;5097024;28;20479;-79
2022/12/15 17:13:21;;;;;;;20.43;13.37;;;;;;;;;;5081092;28;20496;-79
2022/12/15 17:15:48;;;;;;;12.77;9.50;;;;;;;;;;5086946;28;20451;-79
2022/12/15 17:18:16;;;;;;;17.97;10.77;;;;;;;;;;5085531;28;20461;-79